Time;durP1;ratioP1;P1;durP2;ratioP2;P2;SDS_P1;SDS_P2;PMS_P1;PMS_P2;Temp;Humidity;BMP_temperature;BMP_pressure;BME280_temperature;BME280_humidity;BME280_pressure;Samples;Min_cycle;Max_cycle;Signal;HPM_P1;HPM_P2
2023/01/21 00:02:06;;;;;;;57.60;25.33;;;;;;;1.05;74.29;100760.91;5000188;28;20026;-76
2023/01/21 00:04:33;;;;;;;66.83;26.40;;;;;;;1.00;73.92;100745.13;4998968;28;20088;-77
2023/01/21 00:06:59;;;;;;;57.55;24.25;;;;;;;0.96;73.31;100751.88;5000469;28;20072;-77
2023/01/21 00:09:25;;;;;;;65.13;27.38;;;;;;;0.90;74.02;100745.56;5000147;28;20450;-77
2023/01/21 00:11:50;;;;;;;89.27;33.83;;;;;;;0.84;73.54;100744.50;4999804;28;20031;-76
2023/01/21 00:14:16;;;;;;;60.20;27.20;;;;;;;0.81;74.16;100746.06;5000319;28;20023;-76
2023/01/21 00:16:41;;;;;;;64.00;26.83;;;;;;;0.79;73.60;100748.56;5000198;28;20030;-77
2023/01/21 00:19:07;;;;;;;54.47;23.42;;;;;;;0.76;73.31;100743.25;5001508;28;20124;-76
2023/01/21 00:21:32;;;;;;;50.93;24.10;;;;;;;0.73;73.69;100748.31;4999885;28;20505;-76
2023/01/21 00:23:57;;;;;;;45.67;21.50;;;;;;;0.72;73.93;100738.75;5000455;28;20364;-76
2023/01/21 00:26:23;;;;;;;44.77;21.63;;;;;;;0.69;73.56;100736.91;4999938;28;20097;-75
2023/01/21 00:28:48;;;;;;;44.90;20.77;;;;;;;0.67;74.01;100741.13;4998607;28;20034;-76
2023/01/21 00:31:14;;;;;;;45.07;20.57;;;;;;;0.64;73.57;100738.41;4998286;28;20081;-76
2023/01/21 00:33:39;;;;;;;40.10;18.77;;;;;;;0.61;73.36;100742.59;4999586;28;20285;-76
2023/01/21 00:36:07;;;;;;;49.17;19.57;;;;;;;0.59;73.48;100739.03;4999904;28;20061;-76
2023/01/21 00:38:33;;;;;;;42.95;18.30;;;;;;;0.55;73.89;100736.31;4998564;28;20031;-75
2023/01/21 00:41:10;;;;;;;44.43;18.27;;;;;;;0.53;74.03;100740.53;4999891;28;20109;-76
2023/01/21 00:43:36;;;;;;;38.00;17.45;;;;;;;0.52;73.30;100737.88;4999955;28;20459;-76
2023/01/21 00:46:02;;;;;;;41.75;18.65;;;;;;;0.50;73.85;100739.53;4999556;28;20030;-76
2023/01/21 00:48:27;;;;;;;39.75;16.65;;;;;;;0.47;73.61;100740.28;4999353;28;20502;-76
2023/01/21 00:50:54;;;;;;;40.87;19.13;;;;;;;0.45;73.44;100735.81;4999607;28;20452;-75
2023/01/21 00:53:23;;;;;;;44.22;18.67;;;;;;;0.42;73.51;100731.41;4999063;28;20037;-76
2023/01/21 00:55:48;;;;;;;42.97;19.30;;;;;;;0.39;73.64;100739.06;4997918;28;20030;-76
2023/01/21 00:58:13;;;;;;;38.53;19.23;;;;;;;0.36;73.14;100731.13;4998323;28;20046;-76
2023/01/21 01:00:39;;;;;;;42.47;19.90;;;;;;;0.35;73.15;100734.53;4999563;28;20254;-75
2023/01/21 01:03:04;;;;;;;48.63;19.80;;;;;;;0.33;73.56;100733.56;4998974;28;20034;-76
2023/01/21 01:05:30;;;;;;;41.90;18.87;;;;;;;0.31;73.57;100725.75;4997719;28;20031;-76
2023/01/21 01:07:55;;;;;;;43.67;19.37;;;;;;;0.30;73.66;100725.66;4998902;28;20057;-75
2023/01/21 01:10:21;;;;;;;42.42;20.02;;;;;;;0.28;73.30;100728.19;4999388;28;20084;-76
2023/01/21 01:12:46;;;;;;;40.53;19.40;;;;;;;0.24;73.13;100721.97;4999046;28;20076;-75
2023/01/21 01:15:12;;;;;;;38.27;18.23;;;;;;;0.23;73.23;100725.41;4998933;28;20053;-76
2023/01/21 01:17:37;;;;;;;42.03;19.23;;;;;;;0.22;73.65;100718.44;4998994;28;20046;-76
2023/01/21 01:20:03;;;;;;;38.13;18.05;;;;;;;0.20;73.18;100711.41;5010225;28;20364;-75
2023/01/21 01:22:28;;;;;;;36.40;16.70;;;;;;;0.18;73.61;100706.19;4998907;28;20030;-76
2023/01/21 01:24:54;;;;;;;32.13;16.25;;;;;;;0.18;73.71;100713.03;4998905;28;20026;-75
2023/01/21 01:27:19;;;;;;;39.23;16.37;;;;;;;0.16;73.38;100707.81;4989540;28;20448;-76
2023/01/21 01:29:45;;;;;;;33.90;14.77;;;;;;;0.14;73.40;100712.91;4979868;28;20395;-76
2023/01/21 01:32:10;;;;;;;32.43;14.73;;;;;;;0.12;73.24;100709.38;5013393;28;20093;-75
2023/01/21 01:34:36;;;;;;;30.88;15.35;;;;;;;0.11;73.10;100709.28;4998855;28;20105;-75
2023/01/21 01:37:02;;;;;;;37.17;15.87;;;;;;;0.08;73.30;100710.03;4998909;28;20483;-75
2023/01/21 01:39:28;;;;;;;39.80;15.45;;;;;;;0.07;73.32;100716.03;4998352;28;20041;-74
2023/01/21 01:41:53;;;;;;;32.30;15.17;;;;;;;0.06;73.30;100718.56;4998854;28;20394;-76
2023/01/21 01:45:01;;;;;;;37.90;16.80;;;;;;;0.04;73.54;100727.94;4998634;28;20053;-76
2023/01/21 01:47:41;;;;;;;40.00;17.63;;;;;;;0.04;73.22;100727.94;4997874;28;20045;-75
2023/01/21 01:50:10;;;;;;;36.58;15.02;;;;;;;0.05;73.48;100730.63;4997255;28;20078;-75
2023/01/21 01:52:36;;;;;;;38.28;15.18;;;;;;;0.08;73.50;100730.75;4998408;28;20034;-75
2023/01/21 01:55:04;;;;;;;31.30;14.15;;;;;;;0.11;73.59;100730.00;4998301;28;20037;-75
2023/01/21 01:57:38;;;;;;;25.55;11.73;;;;;;;0.17;73.97;100729.41;5013191;28;20038;-75
2023/01/21 02:00:06;;;;;;;27.70;13.00;;;;;;;0.20;74.11;100714.91;4998548;28;20113;-75
2023/01/21 02:02:33;;;;;;;29.83;11.65;;;;;;;0.22;73.74;100715.84;4996563;28;20126;-75
2023/01/21 02:05:03;;;;;;;28.80;11.82;;;;;;;0.24;73.83;100716.81;4996968;28;20105;-76
2023/01/21 02:07:37;;;;;;;23.10;11.75;;;;;;;0.23;73.73;100709.84;4985305;28;20958;-76
2023/01/21 02:10:18;;;;;;;32.00;11.52;;;;;;;0.24;73.74;100710.72;4998326;28;20026;-75
2023/01/21 02:12:44;;;;;;;29.53;10.47;;;;;;;0.25;73.90;100702.16;4998120;28;20053;-75
2023/01/21 02:15:09;;;;;;;25.80;10.23;;;;;;;0.23;73.97;100704.66;4997956;28;20490;-76
2023/01/21 02:18:17;;;;;;;29.48;11.57;;;;;;;0.24;74.55;100708.13;4996819;28;20053;-76
2023/01/21 02:20:52;;;;;;;20.80;9.43;;;;;;;0.30;74.37;100695.47;4998087;28;20037;-76
2023/01/21 02:23:29;;;;;;;28.67;11.02;;;;;;;0.33;74.38;100694.72;4997691;28;20482;-76
2023/01/21 02:26:10;;;;;;;31.27;11.25;;;;;;;0.34;74.09;100697.38;4987348;28;20112;-76
2023/01/21 02:28:45;;;;;;;28.55;9.52;;;;;;;0.34;74.42;100696.47;4985221;28;20412;-76
2023/01/21 02:31:32;;;;;;;22.95;8.65;;;;;;;0.30;74.42;100692.88;4997444;28;20038;-76
2023/01/21 02:34:09;;;;;;;23.30;8.93;;;;;;;0.28;73.93;100686.75;4997532;28;20034;-76
2023/01/21 02:37:09;;;;;;;22.75;8.57;;;;;;;0.25;74.11;100681.44;4997853;28;20076;-76
2023/01/21 02:39:54;;;;;;;21.10;8.43;;;;;;;0.23;74.06;100691.72;4997512;28;20464;-76
2023/01/21 02:42:27;;;;;;;28.15;9.85;;;;;;;0.22;74.33;100676.09;4997838;28;20442;-76
2023/01/21 02:44:52;;;;;;;24.67;9.35;;;;;;;0.24;74.64;100677.94;4997824;28;20026;-76
2023/01/21 02:47:36;;;;;;;26.13;9.40;;;;;;;0.26;74.73;100678.91;4997174;28;20038;-76
2023/01/21 02:50:11;;;;;;;22.33;8.90;;;;;;;0.32;74.42;100683.47;4997609;28;20030;-76
2023/01/21 02:52:36;;;;;;;19.88;8.15;;;;;;;0.36;74.30;100680.19;4997553;28;20038;-76
2023/01/21 02:55:02;;;;;;;22.92;7.68;;;;;;;0.40;74.15;100676.06;4997552;28;20027;-76
2023/01/21 02:57:54;;;;;;;25.20;9.33;;;;;;;0.42;74.20;100679.59;5012508;28;20027;-75
2023/01/21 03:00:25;;;;;;;20.65;8.05;;;;;;;0.49;74.49;100675.56;4997128;28;20154;-76
2023/01/21 03:02:53;;;;;;;20.48;7.85;;;;;;;0.56;74.44;100678.47;4997182;28;20042;-76
2023/01/21 03:05:35;;;;;;;20.15;7.53;;;;;;;0.63;74.67;100660.63;4997099;28;20542;-76
2023/01/21 03:08:10;;;;;;;23.15;7.75;;;;;;;0.66;74.54;100668.53;4997205;28;20038;-75
2023/01/21 03:10:54;;;;;;;21.33;7.07;;;;;;;0.67;74.98;100672.88;4992891;28;20077;-76
2023/01/21 03:16:55;;;;;;;23.77;7.43;;;;;;;0.84;75.36;100665.81;5002184;28;20049;-75
2023/01/21 03:19:24;;;;;;;16.45;6.90;;;;;;;0.92;75.12;100661.81;5012753;28;20084;-75
2023/01/21 03:21:51;;;;;;;22.33;7.85;;;;;;;0.99;74.99;100655.19;5006066;28;20116;-75
2023/01/21 03:24:18;;;;;;;19.23;6.93;;;;;;;1.06;75.37;100657.19;5003853;28;20046;-76
2023/01/21 03:26:50;;;;;;;17.65;6.47;;;;;;;1.12;74.95;100652.28;5013833;28;20039;-75
2023/01/21 03:29:21;;;;;;;15.88;6.70;;;;;;;1.20;74.66;100662.06;4984262;28;20030;-76
2023/01/21 03:31:52;;;;;;;28.15;7.82;;;;;;;1.27;75.52;100664.09;5002174;28;20024;-76
2023/01/21 03:34:19;;;;;;;18.63;6.47;;;;;;;1.31;75.64;100665.97;5013482;28;20022;-76
2023/01/21 03:36:57;;;;;;;20.20;7.13;;;;;;;1.33;75.57;100664.34;5003875;28;20033;-76
2023/01/21 03:39:39;;;;;;;14.68;6.05;;;;;;;1.37;75.59;100655.88;5003507;28;20558;-76
2023/01/21 03:42:05;;;;;;;16.88;6.70;;;;;;;1.42;75.42;100653.44;5003665;28;20034;-76
2023/01/21 03:44:31;;;;;;;15.77;6.75;;;;;;;1.46;74.95;100651.84;5004006;28;20022;-76
2023/01/21 03:46:56;;;;;;;15.20;6.50;;;;;;;1.48;75.23;100645.00;5003687;28;20447;-74
2023/01/21 03:49:31;;;;;;;18.87;6.60;;;;;;;1.52;75.31;100646.88;5003116;28;20482;-76
2023/01/21 03:52:00;;;;;;;16.60;6.03;;;;;;;1.56;75.41;100636.69;5002356;28;20065;-76
2023/01/21 03:54:25;;;;;;;12.98;6.07;;;;;;;1.61;75.25;100638.56;5003498;28;20065;-76
2023/01/21 03:56:51;;;;;;;14.00;6.40;;;;;;;1.63;75.64;100637.81;5003528;28;20030;-76
2023/01/21 03:59:16;;;;;;;14.70;5.67;;;;;;;1.67;75.87;100631.00;5003512;28;20023;-76
2023/01/21 04:01:42;;;;;;;19.77;7.10;;;;;;;1.70;75.05;100623.38;5003628;28;20572;-75
2023/01/21 04:04:08;;;;;;;14.77;5.97;;;;;;;1.72;76.01;100622.59;5003285;28;20426;-76
2023/01/21 04:06:35;;;;;;;20.00;6.45;;;;;;;1.75;75.95;100619.22;5003344;28;20023;-75
2023/01/21 04:09:01;;;;;;;15.77;5.18;;;;;;;1.80;75.32;100635.88;5001723;28;20046;-75
2023/01/21 04:11:27;;;;;;;12.80;4.63;;;;;;;1.82;75.47;100629.00;5003385;28;20030;-76
2023/01/21 04:13:52;;;;;;;16.10;4.68;;;;;;;1.85;75.67;100638.63;5003512;28;20101;-76
2023/01/21 04:16:17;;;;;;;13.93;5.77;;;;;;;1.84;75.81;100639.47;5003326;28;20032;-75
2023/01/21 04:18:43;;;;;;;15.43;6.63;;;;;;;1.82;75.82;100628.13;5006844;28;20029;-76
2023/01/21 04:21:08;;;;;;;18.17;6.70;;;;;;;1.81;75.58;100628.94;5009950;28;20022;-75
2023/01/21 04:23:34;;;;;;;16.38;6.35;;;;;;;1.79;75.56;100633.19;5002980;28;20391;-75
2023/01/21 04:25:59;;;;;;;18.60;5.93;;;;;;;1.73;75.22;100628.69;5003159;28;20137;-76
2023/01/21 04:28:25;;;;;;;18.20;6.53;;;;;;;1.71;75.73;100625.16;4981624;28;20022;-75
2023/01/21 04:30:50;;;;;;;17.63;6.10;;;;;;;1.71;75.10;100626.00;4990250;28;20105;-76
2023/01/21 04:33:17;;;;;;;12.50;5.47;;;;;;;1.71;75.11;100631.19;4999284;28;20033;-76
2023/01/21 04:35:42;;;;;;;15.33;5.63;;;;;;;1.71;75.27;100631.19;5000467;28;20026;-75
2023/01/21 04:38:08;;;;;;;15.13;5.75;;;;;;;1.72;75.72;100645.94;5000040;28;20060;-76
2023/01/21 04:40:33;;;;;;;17.53;5.93;;;;;;;1.74;75.37;100640.84;4988851;28;20038;-75
2023/01/21 04:42:59;;;;;;;14.20;5.60;;;;;;;1.75;75.31;100639.09;4998101;28;20045;-76
2023/01/21 04:45:24;;;;;;;12.55;5.72;;;;;;;1.77;74.98;100634.84;5000042;28;20098;-76
2023/01/21 04:47:50;;;;;;;13.37;5.80;;;;;;;1.79;75.48;100636.69;4998208;28;20022;-75
2023/01/21 04:50:16;;;;;;;15.03;6.33;;;;;;;1.80;75.13;100630.66;4999763;28;20053;-75
2023/01/21 04:52:41;;;;;;;13.02;5.50;;;;;;;1.82;75.09;100633.34;5013918;28;20439;-76
2023/01/21 04:55:08;;;;;;;13.30;5.43;;;;;;;1.86;75.10;100632.63;4999930;28;20044;-76
2023/01/21 04:57:34;;;;;;;14.07;5.32;;;;;;;1.87;75.53;100636.97;4999489;28;20026;-76
2023/01/21 04:59:59;;;;;;;11.40;4.22;;;;;;;1.89;75.62;100635.31;4999605;28;20081;-75
2023/01/21 05:02:25;;;;;;;9.80;3.63;;;;;;;1.88;75.06;100628.38;4999331;28;20026;-75
2023/01/21 05:04:50;;;;;;;7.95;2.67;;;;;;;1.84;75.04;100621.28;4999794;28;20027;-76
2023/01/21 05:07:16;;;;;;;9.50;3.03;;;;;;;1.79;75.05;100625.41;4999199;28;20026;-75
2023/01/21 05:09:41;;;;;;;9.77;3.20;;;;;;;1.74;75.39;100625.25;4999374;28;20061;-76
2023/01/21 05:12:07;;;;;;;8.93;3.00;;;;;;;1.73;75.45;100626.09;4999637;28;20085;-75
2023/01/21 05:14:33;;;;;;;11.27;3.03;;;;;;;1.76;75.49;100622.69;4999675;28;20062;-76
2023/01/21 05:16:59;;;;;;;8.43;2.55;;;;;;;1.81;75.20;100623.75;4998806;28;20089;-76
2023/01/21 05:19:24;;;;;;;9.03;3.23;;;;;;;1.87;75.18;100626.59;5008971;28;20048;-75
2023/01/21 05:21:50;;;;;;;17.37;3.67;;;;;;;1.92;75.09;100622.44;5016538;28;20113;-75
2023/01/21 05:24:15;;;;;;;13.25;3.63;;;;;;;1.98;75.54;100629.59;4999284;28;20026;-76
2023/01/21 05:26:41;;;;;;;10.80;3.00;;;;;;;2.00;75.52;100623.59;4995205;28;20046;-76
2023/01/21 05:29:07;;;;;;;16.40;3.80;;;;;;;2.05;74.98;100625.47;4979862;28;20019;-76
2023/01/21 05:31:32;;;;;;;10.53;2.87;;;;;;;2.04;75.24;100621.13;4996099;28;20553;-76
2023/01/21 05:33:58;;;;;;;6.80;2.63;;;;;;;2.01;75.69;100625.38;4997367;28;20113;-75
2023/01/21 05:36:23;;;;;;;10.77;2.42;;;;;;;1.95;75.07;100629.47;4999115;28;20022;-76
2023/01/21 05:38:49;;;;;;;7.60;2.07;;;;;;;1.89;74.66;100635.31;4998115;28;20088;-76
2023/01/21 05:41:14;;;;;;;9.73;1.90;;;;;;;1.85;74.62;100638.63;4999011;28;20041;-76
2023/01/21 05:43:40;;;;;;;6.47;2.13;;;;;;;1.86;75.21;100640.41;4997884;28;20019;-75
2023/01/21 05:46:05;;;;;;;8.10;2.05;;;;;;;1.86;75.31;100635.22;5014017;28;20137;-75
2023/01/21 05:48:31;;;;;;;8.77;2.30;;;;;;;1.86;75.32;100643.00;4998504;28;20038;-75
2023/01/21 05:50:57;;;;;;;5.00;1.70;;;;;;;1.82;74.96;100638.53;4998729;28;20089;-76
2023/01/21 05:53:23;;;;;;;8.10;1.70;;;;;;;1.80;74.92;100646.25;4998668;28;20037;-76
2023/01/21 05:55:53;;;;;;;6.65;1.60;;;;;;;1.82;74.98;100641.13;4998880;28;20384;-76
2023/01/21 05:58:19;;;;;;;9.75;2.10;;;;;;;1.81;74.99;100642.81;4998492;28;20105;-76
2023/01/21 06:00:47;;;;;;;7.83;2.40;;;;;;;1.80;74.75;100642.75;4998509;28;20537;-75
2023/01/21 06:03:13;;;;;;;6.90;2.03;;;;;;;1.85;74.92;100649.03;4998294;28;20076;-76
2023/01/21 06:05:40;;;;;;;7.38;2.00;;;;;;;1.86;75.23;100651.66;4998472;28;20030;-76
2023/01/21 06:08:06;;;;;;;10.93;2.30;;;;;;;1.91;75.55;100638.88;4998268;28;20057;-76
2023/01/21 06:10:31;;;;;;;6.33;1.80;;;;;;;1.96;75.09;100633.84;4997034;28;20121;-75
2023/01/21 06:12:57;;;;;;;7.97;2.13;;;;;;;1.98;75.25;100639.97;4998494;28;20324;-75
2023/01/21 06:15:24;;;;;;;6.23;1.90;;;;;;;2.00;75.54;100626.19;4998218;28;20029;-76
2023/01/21 06:17:50;;;;;;;8.05;2.00;;;;;;;1.98;75.13;100634.78;4997922;28;20022;-75
2023/01/21 06:20:15;;;;;;;8.37;2.20;;;;;;;1.97;75.04;100633.88;5009680;28;20041;-76
2023/01/21 06:22:41;;;;;;;6.45;2.28;;;;;;;1.96;74.81;100629.53;4998448;28;20034;-76
2023/01/21 06:25:07;;;;;;;8.90;1.97;;;;;;;1.93;74.96;100626.81;4998094;28;20101;-75
2023/01/21 06:27:33;;;;;;;8.07;2.33;;;;;;;1.92;74.96;100627.63;5001617;28;20026;-75
2023/01/21 06:29:58;;;;;;;7.57;2.07;;;;;;;1.89;75.38;100632.72;4997886;28;20802;-75
2023/01/21 06:32:23;;;;;;;7.10;2.28;;;;;;;1.88;75.13;100633.56;4997915;28;20103;-76
2023/01/21 06:34:49;;;;;;;7.77;2.20;;;;;;;1.91;75.78;100633.66;4997620;28;20038;-76
2023/01/21 06:37:14;;;;;;;6.47;2.33;;;;;;;1.94;75.14;100628.59;4998132;28;20386;-75
2023/01/21 06:39:40;;;;;;;12.83;3.13;;;;;;;1.97;75.45;100633.88;4998035;28;20034;-76
2023/01/21 06:42:05;;;;;;;6.70;2.40;;;;;;;1.99;75.56;100627.03;4998297;28;20038;-76
2023/01/21 06:44:31;;;;;;;5.80;2.47;;;;;;;1.99;75.39;100624.44;4997762;28;20030;-75
2023/01/21 06:46:56;;;;;;;7.83;3.27;;;;;;;1.99;74.97;100621.84;4997550;28;20506;-75
2023/01/21 06:49:21;;;;;;;7.50;2.33;;;;;;;2.00;75.92;100636.59;4997721;28;20061;-76
2023/01/21 06:51:47;;;;;;;8.00;2.50;;;;;;;2.01;75.15;100624.50;4997282;28;20105;-75
2023/01/21 06:54:13;;;;;;;10.40;2.70;;;;;;;2.03;75.28;100627.13;4997509;28;20050;-75
2023/01/21 06:56:42;;;;;;;8.70;2.63;;;;;;;2.03;75.41;100628.03;4997922;28;20450;-75
2023/01/21 06:59:08;;;;;;;6.70;2.37;;;;;;;2.03;75.65;100625.44;4997882;28;20053;-75
2023/01/21 07:01:33;;;;;;;7.03;2.28;;;;;;;2.06;75.93;100627.28;5009002;28;20031;-75
2023/01/21 07:04:00;;;;;;;9.67;2.87;;;;;;;2.06;76.07;100635.94;4997544;28;20033;-75
2023/01/21 07:06:25;;;;;;;9.27;2.40;;;;;;;2.08;75.88;100634.28;4996364;28;20046;-75
2023/01/21 07:08:51;;;;;;;9.63;2.72;;;;;;;2.06;74.40;100635.94;4995909;28;20050;-75
2023/01/21 07:11:16;;;;;;;6.50;2.80;;;;;;;2.08;75.40;100636.88;4997505;28;20027;-75
2023/01/21 07:13:42;;;;;;;7.83;2.60;;;;;;;2.10;76.05;100640.41;4997460;28;20026;-75
2023/01/21 07:16:07;;;;;;;6.33;1.90;;;;;;;2.10;75.20;100640.41;5012570;28;20380;-75
2023/01/21 07:18:33;;;;;;;11.63;3.50;;;;;;;2.14;75.82;100639.69;4998102;28;20038;-75
2023/01/21 07:20:58;;;;;;;10.80;2.38;;;;;;;2.16;75.80;100634.56;5006484;28;20026;-75
2023/01/21 07:23:24;;;;;;;10.43;2.27;;;;;;;2.17;75.08;100635.44;4997390;28;20498;-75
2023/01/21 07:25:49;;;;;;;6.07;2.30;;;;;;;2.19;75.45;100647.66;5012587;28;20077;-75
2023/01/21 07:28:15;;;;;;;13.02;2.45;;;;;;;2.21;75.61;100643.41;4979919;28;20031;-75
2023/01/21 07:30:40;;;;;;;9.10;2.13;;;;;;;2.23;76.03;100640.88;4987552;28;20174;-75
2023/01/21 07:33:07;;;;;;;9.00;2.40;;;;;;;2.23;76.00;100649.53;5012338;28;20026;-75
2023/01/21 07:35:34;;;;;;;9.88;2.78;;;;;;;2.26;75.65;100643.56;4997093;28;20491;-75
2023/01/21 07:37:59;;;;;;;6.13;2.60;;;;;;;2.27;75.99;100648.81;4997365;28;20067;-75
2023/01/21 07:40:25;;;;;;;11.83;2.87;;;;;;;2.29;75.51;100647.19;5012443;28;20479;-75
2023/01/21 07:42:53;;;;;;;8.80;2.90;;;;;;;2.32;75.37;100656.78;4996925;28;20065;-75
2023/01/21 07:45:19;;;;;;;11.00;3.40;;;;;;;2.35;75.44;100653.44;4997397;28;20446;-75
2023/01/21 07:47:44;;;;;;;7.97;2.97;;;;;;;2.36;75.99;100653.47;5012202;28;20043;-75
2023/01/21 07:50:10;;;;;;;8.60;2.70;;;;;;;2.36;75.46;100652.59;4997246;28;20038;-75
2023/01/21 07:52:36;;;;;;;9.10;3.50;;;;;;;2.41;75.50;100653.63;4995419;28;20026;-75
2023/01/21 07:55:01;;;;;;;12.20;4.38;;;;;;;2.52;74.97;100654.88;4997156;28;20055;-75
2023/01/21 07:57:27;;;;;;;9.77;4.13;;;;;;;2.65;75.67;100650.13;4996984;28;20035;-76
2023/01/21 07:59:53;;;;;;;9.40;3.13;;;;;;;2.79;75.00;100632.38;4997209;28;20474;-75
2023/01/21 08:02:18;;;;;;;9.13;3.40;;;;;;;2.87;75.07;100626.59;4997498;28;20033;-76
2023/01/21 08:04:44;;;;;;;8.70;2.87;;;;;;;2.94;74.63;100640.72;5000857;28;20080;-76
2023/01/21 08:07:09;;;;;;;10.73;2.83;;;;;;;2.99;74.25;100623.53;5000705;28;20034;-76
2023/01/21 08:09:38;;;;;;;10.50;3.03;;;;;;;3.09;74.47;100624.72;5000339;28;20042;-76
2023/01/21 08:12:05;;;;;;;10.77;2.70;;;;;;;3.21;74.67;100626.81;5000563;28;20034;-76
2023/01/21 08:14:31;;;;;;;6.68;2.28;;;;;;;3.37;74.17;100620.38;5000737;28;20053;-76
2023/01/21 08:16:57;;;;;;;8.05;2.33;;;;;;;3.59;73.88;100618.44;5000552;28;20038;-76
2023/01/21 08:19:22;;;;;;;6.85;2.40;;;;;;;3.91;73.54;100625.44;5008419;28;20120;-76
2023/01/21 08:21:47;;;;;;;5.27;1.97;;;;;;;4.40;72.76;100631.13;5003054;28;20053;-76
2023/01/21 08:24:13;;;;;;;8.10;2.10;;;;;;;5.14;71.26;100622.56;5000531;28;20050;-76
2023/01/21 08:26:38;;;;;;;5.97;1.97;;;;;;;6.30;70.22;100624.19;4996699;28;20034;-76
2023/01/21 08:29:04;;;;;;;9.00;2.10;;;;;;;7.93;70.08;100620.66;4980874;28;20089;-76
2023/01/21 08:31:29;;;;;;;7.23;1.97;;;;;;;9.66;70.71;100604.69;4996674;28;20112;-74
2023/01/21 08:33:56;;;;;;;9.00;1.63;;;;;;;11.28;70.71;100610.28;4999649;28;20032;-74
2023/01/21 08:36:22;;;;;;;7.63;2.13;;;;;;;12.71;69.20;100594.72;5017030;28;20045;-74
2023/01/21 08:38:54;;;;;;;6.43;1.77;;;;;;;14.21;63.62;100588.75;5007101;28;21040;-74
2023/01/21 08:41:20;;;;;;;7.45;2.00;;;;;;;15.66;65.65;100579.28;5005215;28;20031;-74
2023/01/21 08:43:46;;;;;;;7.78;2.10;;;;;;;15.36;62.66;100578.97;5008319;28;20029;-74
2023/01/21 08:46:12;;;;;;;8.00;1.90;;;;;;;14.45;64.83;100586.66;5008511;28;20449;-74
2023/01/21 08:48:37;;;;;;;8.20;2.50;;;;;;;13.24;66.47;100599.53;5009120;28;20030;-75
2023/01/21 08:51:04;;;;;;;7.13;2.20;;;;;;;11.82;67.63;100609.25;5001165;28;20072;-76
2023/01/21 08:53:29;;;;;;;9.18;2.30;;;;;;;10.58;68.58;100618.16;5007052;28;20026;-76
2023/01/21 08:55:59;;;;;;;9.10;3.10;;;;;;;9.43;68.03;100626.44;4985734;28;20070;-76
2023/01/21 08:58:25;;;;;;;6.93;2.22;;;;;;;8.58;68.71;100642.41;4980705;28;20038;-75
2023/01/21 09:00:51;;;;;;;8.55;3.08;;;;;;;7.88;70.23;100649.41;5007997;28;20047;-75
2023/01/21 09:03:18;;;;;;;9.13;3.20;;;;;;;7.35;71.49;100658.25;5014262;28;20037;-75
2023/01/21 09:05:43;;;;;;;7.82;2.70;;;;;;;6.91;71.71;100658.44;4999536;28;20026;-74
2023/01/21 09:08:09;;;;;;;8.73;2.40;;;;;;;6.59;71.02;100654.38;5004943;28;20057;-75
2023/01/21 09:13:18;;;;;;;8.55;2.95;;;;;;;6.63;72.62;100650.06;5006573;28;20482;-75
2023/01/21 09:15:44;;;;;;;7.33;2.50;;;;;;;7.57;71.53;100638.53;4999655;28;20022;-75
2023/01/21 09:18:10;;;;;;;6.43;1.90;;;;;;;7.75;72.11;100640.50;4998899;28;20038;-75
2023/01/21 09:20:36;;;;;;;7.47;1.73;;;;;;;7.58;70.78;100649.88;5011462;28;20046;-76
2023/01/21 09:23:22;;;;;;;6.00;2.05;;;;;;;7.38;71.85;100647.84;4999459;28;20038;-76
2023/01/21 09:25:47;;;;;;;7.30;2.88;;;;;;;7.17;71.15;100653.63;4989628;28;20034;-76
2023/01/21 09:28:15;;;;;;;9.10;3.00;;;;;;;6.91;71.42;100663.69;4982591;28;20381;-76
2023/01/21 09:30:40;;;;;;;8.30;2.90;;;;;;;6.62;71.85;100670.16;4994240;28;20456;-76
2023/01/21 09:33:06;;;;;;;10.17;3.70;;;;;;;6.39;72.16;100674.91;5013819;28;20073;-76
2023/01/21 09:35:31;;;;;;;8.37;3.10;;;;;;;6.18;71.92;100673.66;4998839;28;20038;-76
2023/01/21 09:37:56;;;;;;;10.00;3.60;;;;;;;5.96;72.21;100683.63;5004718;28;20581;-78
2023/01/21 09:40:22;;;;;;;8.80;3.00;;;;;;;5.79;72.73;100679.75;4979665;28;20266;-77
2023/01/21 09:42:47;;;;;;;7.90;2.90;;;;;;;5.64;72.93;100683.78;4993982;28;20656;-77
2023/01/21 09:45:14;;;;;;;9.37;2.30;;;;;;;5.51;73.30;100679.13;4998792;28;20057;-76
2023/01/21 09:47:43;;;;;;;7.22;2.83;;;;;;;5.38;72.87;100681.44;4998512;28;20561;-79
2023/01/21 09:50:18;;;;;;;8.02;2.92;;;;;;;5.27;73.55;100678.56;4997695;28;20498;-74
2023/01/21 09:52:46;;;;;;;7.82;2.90;;;;;;;5.17;72.83;100674.84;5005057;28;20056;-75
2023/01/21 09:55:11;;;;;;;12.53;3.70;;;;;;;5.09;73.09;100665.94;4993647;28;20062;-75
2023/01/21 09:58:01;;;;;;;11.77;2.40;;;;;;;4.96;73.08;100679.56;4988792;28;20487;-73
2023/01/21 10:00:56;;;;;;;6.95;2.38;;;;;;;4.83;71.98;100680.97;4999769;28;20026;-79
2023/01/21 10:03:31;;;;;;;11.57;3.45;;;;;;;4.78;73.01;100683.44;4990910;28;20037;-79
2023/01/21 10:06:15;;;;;;;11.27;3.95;;;;;;;4.72;73.13;100691.97;4991787;28;20019;-76
2023/01/21 10:09:04;;;;;;;14.10;3.58;;;;;;;4.66;71.79;100690.94;4990476;28;20055;-77
2023/01/21 10:11:29;;;;;;;8.90;3.37;;;;;;;4.62;73.42;100689.97;5006035;28;20066;-77
2023/01/21 10:14:28;;;;;;;8.88;3.00;;;;;;;4.58;72.13;100683.78;5002808;28;20076;-78
2023/01/21 10:17:12;;;;;;;8.80;3.13;;;;;;;4.62;72.88;100689.09;5001697;28;20018;-76
2023/01/21 10:20:00;;;;;;;14.05;3.85;;;;;;;4.64;73.52;100682.19;5007932;28;20025;-75
2023/01/21 10:22:27;;;;;;;14.85;3.55;;;;;;;4.66;74.00;100680.50;5007448;28;20499;-75
2023/01/21 10:24:59;;;;;;;14.55;3.40;;;;;;;4.65;73.45;100676.13;4998439;28;20360;-75
2023/01/21 10:27:29;;;;;;;11.98;3.20;;;;;;;4.62;73.62;100673.44;4994959;28;20022;-75
2023/01/21 10:30:04;;;;;;;10.37;3.40;;;;;;;4.60;73.43;100666.44;4994266;28;20053;-75
2023/01/21 10:32:32;;;;;;;10.50;2.70;;;;;;;4.62;73.80;100669.13;4997418;28;20026;-76
2023/01/21 10:34:57;;;;;;;9.80;2.70;;;;;;;4.59;73.61;100664.69;4997500;28;20034;-82
2023/01/21 10:37:36;;;;;;;6.87;2.70;;;;;;;4.55;71.54;100660.25;4997784;28;20114;-77
2023/01/21 10:44:05;;;;;;;7.97;2.60;;;;;;;4.62;72.85;100657.78;4996014;28;20060;-84
2023/01/21 10:46:40;;;;;;;7.50;2.20;;;;;;;4.67;73.87;100641.41;4993288;28;20521;-83
2023/01/21 10:49:27;;;;;;;8.23;1.93;;;;;;;4.67;73.80;100648.34;4989555;28;20755;-79
2023/01/21 10:52:15;;;;;;;6.53;2.15;;;;;;;4.61;71.09;100641.28;4990556;28;20022;-81
2023/01/21 10:55:13;;;;;;;9.18;2.30;;;;;;;4.73;72.92;100635.50;4986129;28;20089;-80
2023/01/21 10:58:10;;;;;;;9.10;2.90;;;;;;;4.76;71.99;100627.72;4996215;28;20026;-79
2023/01/21 11:00:46;;;;;;;11.80;4.32;;;;;;;4.81;73.46;100628.72;4995340;28;20058;-79
2023/01/21 11:03:40;;;;;;;11.23;3.23;;;;;;;4.75;70.34;100631.19;4992756;28;20113;-82
2023/01/21 11:06:09;;;;;;;10.27;3.45;;;;;;;4.81;73.35;100626.13;4990185;28;20023;-77
2023/01/21 11:08:36;;;;;;;9.10;3.47;;;;;;;4.84;73.99;100634.03;5012110;28;20053;-74
2023/01/21 11:11:02;;;;;;;12.45;3.40;;;;;;;4.86;73.17;100624.50;5006300;28;20030;-76
2023/01/21 11:13:27;;;;;;;18.15;6.40;;;;;;;4.96;73.75;100616.91;5004278;28;20057;-75
2023/01/21 11:15:55;;;;;;;16.10;5.07;;;;;;;5.09;73.20;100612.88;5007082;28;20023;-75
2023/01/21 11:18:38;;;;;;;17.15;5.13;;;;;;;5.20;71.47;100607.91;5008294;28;20446;-78
2023/01/21 11:21:16;;;;;;;14.27;4.03;;;;;;;5.30;70.40;100609.88;5020939;28;20393;-80
2023/01/21 11:23:54;;;;;;;14.60;3.33;;;;;;;5.39;70.86;100602.25;5011588;28;20410;-73
2023/01/21 11:26:24;;;;;;;14.63;3.70;;;;;;;5.56;72.79;100601.75;5008157;28;20026;-76
2023/01/21 11:29:14;;;;;;;11.77;3.20;;;;;;;5.66;70.51;100593.25;5011247;28;20061;-76
2023/01/21 11:31:42;;;;;;;13.20;2.35;;;;;;;5.83;72.07;100590.13;5001400;28;20049;-76
2023/01/21 11:34:21;;;;;;;10.40;2.47;;;;;;;6.08;69.74;100580.19;5007241;28;20558;-79
2023/01/21 11:36:54;;;;;;;15.90;3.20;;;;;;;6.53;71.08;100581.88;5007428;28;20021;-76
2023/01/21 11:39:26;;;;;;;15.65;3.83;;;;;;;6.89;71.01;100580.75;5010826;28;20085;-76
2023/01/21 11:41:54;;;;;;;12.07;2.65;;;;;;;6.95;71.71;100579.09;5006694;28;20033;-75
2023/01/21 11:44:21;;;;;;;13.02;3.15;;;;;;;6.96;71.39;100567.75;5018516;28;20028;-76
2023/01/21 11:46:46;;;;;;;16.83;3.87;;;;;;;6.91;71.11;100565.06;5015957;28;20486;-78